createdAt,value
2023-04-02T00:00:10.905Z,100.00
2023-04-02T00:03:12.452Z,100.00
2023-04-02T00:05:55.256Z,100.00
2023-04-02T00:08:45.913Z,100.00
2023-04-02T00:11:16.392Z,100.00
2023-04-02T00:13:49.613Z,100.00
2023-04-02T00:16:42.848Z,100.00
2023-04-02T00:19:26.413Z,100.00
2023-04-02T00:22:22.905Z,100.00
2023-04-02T00:24:57.584Z,100.00
2023-04-02T00:27:28.982Z,100.00
2023-04-02T00:29:59.493Z,100.00
2023-04-02T00:32:33.099Z,100.00
2023-04-02T00:35:11.123Z,100.00
2023-04-02T00:37:43.544Z,100.00
2023-04-02T00:40:25.832Z,100.00
2023-04-02T00:43:04.896Z,100.00
2023-04-02T00:45:38.206Z,100.00
2023-04-02T00:48:50.503Z,100.00
2023-04-02T00:51:48.207Z,100.00
2023-04-02T00:54:22.155Z,100.00
2023-04-02T00:56:56.616Z,100.00
2023-04-02T00:59:40.121Z,100.00
2023-04-02T01:02:15.158Z,100.00
2023-04-02T01:05:23.768Z,100.00
2023-04-02T01:08:41.426Z,100.00
2023-04-02T01:11:31.080Z,100.00
2023-04-02T01:15:07.402Z,100.00
2023-04-02T01:18:06.117Z,100.00
2023-04-02T01:20:55.841Z,100.00
2023-04-02T01:24:33.433Z,100.00
2023-04-02T01:27:32.715Z,100.00
2023-04-02T01:30:05.341Z,100.00
2023-04-02T01:32:40.270Z,100.00
2023-04-02T01:35:35.738Z,100.00
2023-04-02T01:38:47.274Z,100.00
2023-04-02T01:41:35.803Z,100.00
2023-04-02T01:44:17.531Z,100.00
2023-04-02T01:46:59.686Z,100.00
2023-04-02T01:49:33.019Z,100.00
2023-04-02T01:52:09.593Z,100.00
2023-04-02T01:54:53.657Z,100.00
2023-04-02T01:57:29.765Z,100.00
2023-04-02T02:00:17.608Z,100.00
2023-04-02T02:02:52.471Z,100.00
2023-04-02T02:05:34.542Z,100.00
2023-04-02T02:08:05.683Z,100.00
2023-04-02T02:10:56.042Z,100.00
2023-04-02T02:13:31.546Z,100.00
2023-04-02T02:16:07.108Z,100.00
2023-04-02T02:18:47.823Z,100.00
2023-04-02T02:21:46.684Z,100.00
2023-04-02T02:24:28.924Z,100.00
2023-04-02T02:27:24.615Z,100.00
2023-04-02T02:30:01.937Z,100.00
2023-04-02T02:33:02.154Z,100.00
2023-04-02T02:35:37.741Z,100.00
2023-04-02T02:38:31.648Z,100.00
2023-04-02T02:41:04.844Z,100.00
2023-04-02T02:43:40.679Z,100.00
2023-04-02T02:46:33.491Z,100.00
2023-04-02T02:49:09.269Z,100.00
2023-04-02T02:52:02.504Z,100.00
2023-04-02T02:54:36.577Z,100.00
2023-04-02T02:57:14.350Z,100.00
2023-04-02T02:59:49.855Z,100.00
2023-04-02T03:02:50.488Z,100.00
2023-04-02T03:05:28.443Z,100.00
2023-04-02T03:08:03.647Z,100.00
2023-04-02T03:11:18.445Z,100.00
2023-04-02T03:14:30.626Z,100.00
2023-04-02T03:17:38.478Z,100.00
2023-04-02T03:20:40.547Z,100.00
2023-04-02T03:23:30.684Z,100.00
2023-04-02T03:26:12.574Z,100.00
2023-04-02T03:29:03.985Z,100.00
2023-04-02T03:32:08.278Z,100.00
2023-04-02T03:34:54.992Z,100.00
2023-04-02T03:37:50.617Z,100.00
2023-04-02T03:40:45.123Z,100.00
2023-04-02T03:43:29.270Z,100.00
2023-04-02T03:46:22.402Z,100.00
2023-04-02T03:49:12.244Z,100.00
2023-04-02T03:52:17.588Z,100.00
2023-04-02T03:55:04.030Z,100.00
2023-04-02T03:58:07.306Z,100.00
2023-04-02T04:00:57.118Z,100.00
2023-04-02T04:03:36.129Z,100.00
2023-04-02T04:06:25.117Z,100.00
2023-04-02T04:09:38.833Z,100.00
2023-04-02T04:12:48.472Z,100.00
2023-04-02T04:16:39.274Z,100.00
2023-04-02T04:19:52.797Z,100.00
2023-04-02T04:22:50.193Z,100.00
2023-04-02T04:28:44.441Z,100.00
2023-04-02T04:31:42.951Z,100.00
2023-04-02T04:35:08.635Z,100.00
2023-04-02T04:38:37.480Z,100.00
2023-04-02T04:42:12.542Z,100.00
2023-04-02T04:45:32.655Z,100.00
2023-04-02T04:48:41.253Z,100.00
2023-04-02T04:51:58.059Z,100.00
2023-04-02T04:55:04.557Z,100.00
2023-04-02T04:58:36.694Z,100.00
2023-04-02T05:01:44.948Z,100.00
2023-04-02T05:04:44.001Z,100.00
2023-04-02T05:07:48.750Z,100.00
2023-04-02T05:10:59.257Z,100.00
2023-04-02T05:14:17.131Z,100.00
2023-04-02T05:17:43.774Z,100.00
2023-04-02T05:20:48.682Z,100.00
2023-04-02T05:23:40.509Z,100.00
2023-04-02T05:26:33.978Z,100.00
2023-04-02T05:29:34.001Z,100.00
2023-04-02T05:32:44.792Z,100.00
2023-04-02T05:35:48.825Z,100.00
2023-04-02T05:38:33.546Z,100.00
2023-04-02T05:41:40.156Z,100.00
2023-04-02T05:44:42.095Z,100.00
2023-04-02T05:47:28.758Z,100.00
2023-04-02T05:50:22.882Z,100.00
2023-04-02T05:53:04.225Z,100.00
2023-04-02T05:55:45.353Z,100.00
2023-04-02T05:58:37.554Z,100.00
2023-04-02T06:01:39.870Z,100.00
2023-04-02T06:04:34.837Z,100.00
2023-04-02T06:07:16.102Z,100.00
2023-04-02T06:09:53.458Z,100.00
2023-04-02T06:12:35.701Z,100.00
2023-04-02T06:15:06.946Z,100.00
2023-04-02T06:18:01.230Z,100.00
2023-04-02T06:20:29.849Z,100.00
2023-04-02T06:23:18.772Z,100.00
2023-04-02T06:25:54.893Z,100.00
2023-04-02T06:28:41.280Z,100.00
2023-04-02T06:31:23.562Z,100.00
2023-04-02T06:33:55.180Z,100.00
2023-04-02T06:36:30.130Z,100.00
2023-04-02T06:39:07.005Z,100.00
2023-04-02T06:41:35.607Z,100.00
2023-04-02T06:44:15.240Z,100.00
2023-04-02T06:46:48.417Z,100.00
2023-04-02T06:49:31.252Z,100.00
2023-04-02T06:52:01.598Z,100.00
2023-04-02T06:54:30.542Z,100.00
2023-04-02T06:56:59.006Z,100.00
2023-04-02T06:59:27.597Z,100.00
2023-04-02T07:02:06.906Z,100.00
2023-04-02T07:04:35.597Z,100.00
2023-04-02T07:07:04.357Z,100.00
2023-04-02T07:09:33.172Z,100.00
2023-04-02T07:12:01.970Z,100.00
2023-04-02T07:14:30.323Z,100.00
2023-04-02T07:16:59.023Z,100.00
2023-04-02T07:19:27.614Z,99.90
2023-04-02T07:21:56.152Z,99.79
2023-04-02T07:24:24.330Z,99.66
2023-04-02T07:26:52.838Z,99.14
2023-04-02T07:29:21.194Z,99.21
2023-04-02T07:31:49.488Z,99.45
2023-04-02T07:34:17.912Z,99.42
2023-04-02T07:36:49.719Z,99.29
2023-04-02T07:39:21.858Z,99.13
2023-04-02T07:41:56.551Z,99.02
2023-04-02T07:44:24.885Z,98.07
2023-04-02T07:46:53.195Z,98.05
2023-04-02T07:49:21.802Z,97.65
2023-04-02T07:51:52.907Z,97.00
2023-04-02T07:54:21.436Z,95.80
2023-04-02T07:56:50.239Z,95.90
2023-04-02T07:59:18.850Z,95.58
2023-04-02T08:01:48.548Z,94.94
2023-04-02T08:04:22.083Z,94.98
2023-04-02T08:07:00.227Z,94.46
2023-04-02T08:09:28.786Z,93.08
2023-04-02T08:11:57.441Z,92.37
2023-04-02T08:14:26.086Z,92.35
2023-04-02T08:16:56.455Z,92.46
2023-04-02T08:19:24.987Z,91.12
2023-04-02T08:21:54.092Z,91.31
2023-04-02T08:24:23.115Z,91.74
2023-04-02T08:26:54.596Z,92.19
2023-04-02T08:29:22.916Z,92.05
2023-04-02T08:31:51.274Z,91.78
2023-04-02T08:34:19.538Z,91.12
2023-04-02T08:36:48.189Z,90.95
2023-04-02T08:39:16.518Z,91.00
2023-04-02T08:41:51.693Z,89.31
2023-04-02T08:44:36.909Z,89.38
2023-04-02T08:47:11.055Z,88.86
2023-04-02T08:49:53.840Z,88.93
2023-04-02T08:52:34.273Z,88.74
2023-04-02T08:55:05.058Z,88.61
2023-04-02T08:57:42.073Z,88.27
2023-04-02T09:00:22.453Z,89.08
2023-04-02T09:03:09.156Z,89.65
2023-04-02T09:05:42.704Z,89.55
2023-04-02T09:08:21.439Z,89.93
2023-04-02T09:10:59.025Z,90.13
2023-04-02T09:13:29.711Z,90.10
2023-04-02T09:16:03.097Z,90.66
2023-04-02T09:18:32.980Z,90.31
2023-04-02T09:21:19.273Z,90.44
2023-04-02T09:23:48.167Z,89.67
2023-04-02T09:26:31.349Z,89.23
2023-04-02T09:29:33.370Z,89.33
2023-04-02T09:32:28.353Z,89.11
2023-04-02T09:35:18.497Z,89.23
2023-04-02T09:38:30.933Z,89.50
2023-04-02T09:41:18.728Z,89.16
2023-04-02T09:43:47.095Z,89.40
2023-04-02T09:46:23.067Z,88.95
2023-04-02T09:49:01.349Z,88.51
2023-04-02T09:51:35.201Z,88.46
2023-04-02T09:54:10.186Z,88.40
2023-04-02T09:56:40.324Z,88.04
2023-04-02T09:59:22.016Z,87.87
2023-04-02T10:01:53.718Z,87.73
2023-04-02T10:04:44.810Z,87.20
2023-04-02T10:07:44.997Z,87.13
2023-04-02T10:10:16.912Z,87.26
2023-04-02T10:13:03.006Z,87.53
2023-04-02T10:15:42.625Z,87.67
2023-04-02T10:18:42.511Z,87.72
2023-04-02T10:21:15.762Z,87.36
2023-04-02T10:23:44.485Z,87.78
2023-04-02T10:26:58.159Z,88.26
2023-04-02T10:29:52.260Z,87.05
2023-04-02T10:32:23.997Z,86.84
2023-04-02T10:34:57.258Z,86.92
2023-04-02T10:37:44.152Z,86.91
2023-04-02T10:40:29.818Z,86.72
2023-04-02T10:43:34.031Z,86.11
2023-04-02T10:46:14.850Z,85.96
2023-04-02T10:49:00.159Z,83.81
2023-04-02T10:51:38.962Z,85.01
2023-04-02T10:54:48.295Z,85.31
2023-04-02T10:57:48.717Z,85.73
2023-04-02T11:00:28.046Z,85.72
2023-04-02T11:03:13.560Z,85.01
2023-04-02T11:06:12.431Z,84.90
2023-04-02T11:08:49.283Z,85.02
2023-04-02T11:11:24.877Z,84.73
2023-04-02T11:14:01.044Z,84.74
2023-04-02T11:16:30.198Z,85.08
2023-04-02T11:19:38.073Z,85.14
2023-04-02T11:22:22.127Z,85.07
2023-04-02T11:24:53.399Z,85.07
2023-04-02T11:27:29.738Z,85.01
2023-04-02T11:30:18.287Z,84.95
2023-04-02T11:32:49.786Z,84.85
2023-04-02T11:35:33.399Z,84.62
2023-04-02T11:38:23.636Z,84.00
2023-04-02T11:40:59.123Z,84.28
2023-04-02T11:43:33.672Z,84.39
2023-04-02T11:46:18.905Z,84.46
2023-04-02T11:48:47.621Z,83.99
2023-04-02T11:51:36.346Z,84.28
2023-04-02T11:54:05.828Z,83.87
2023-04-02T11:56:50.619Z,84.05
2023-04-02T11:59:46.338Z,83.65
2023-04-02T12:02:30.895Z,83.67
2023-04-02T12:05:14.800Z,83.22
2023-04-02T12:08:06.460Z,82.21
2023-04-02T12:10:55.566Z,82.02
2023-04-02T12:13:42.352Z,80.07
2023-04-02T12:16:14.778Z,79.84
2023-04-02T12:18:53.992Z,79.85
2023-04-02T12:21:28.681Z,79.69
2023-04-02T12:24:01.145Z,79.94
2023-04-02T12:26:42.436Z,78.37
2023-04-02T12:29:25.066Z,79.07
2023-04-02T12:31:58.690Z,79.31
2023-04-02T12:34:30.717Z,78.83
2023-04-02T12:37:05.630Z,78.84
2023-04-02T12:39:35.141Z,78.54
2023-04-02T12:42:03.568Z,78.93
2023-04-02T12:44:32.834Z,79.24
2023-04-02T12:47:01.693Z,79.69
2023-04-02T12:49:42.211Z,79.97
2023-04-02T12:52:16.930Z,78.49
2023-04-02T12:54:49.972Z,78.01
2023-04-02T12:57:27.044Z,76.97
2023-04-02T13:00:16.792Z,76.67
2023-04-02T13:02:48.369Z,77.51
2023-04-02T13:05:35.560Z,76.79
2023-04-02T13:08:05.847Z,77.41
2023-04-02T13:10:35.435Z,77.25
2023-04-02T13:13:04.331Z,76.94
2023-04-02T13:15:36.823Z,76.67
2023-04-02T13:18:13.297Z,76.66
2023-04-02T13:21:05.696Z,76.77
2023-04-02T13:23:38.012Z,77.21
2023-04-02T13:26:09.368Z,77.19
2023-04-02T13:28:38.925Z,77.17
2023-04-02T13:31:18.248Z,76.69
2023-04-02T13:33:46.401Z,77.00
2023-04-02T13:36:15.310Z,76.98
2023-04-02T13:38:53.796Z,76.70
2023-04-02T13:41:32.072Z,77.07
2023-04-02T13:44:03.076Z,76.97
2023-04-02T13:46:34.404Z,77.48
2023-04-02T13:49:03.049Z,77.67
2023-04-02T13:51:45.444Z,77.86
2023-04-02T13:54:31.681Z,77.75
2023-04-02T13:57:00.219Z,77.88
2023-04-02T13:59:30.477Z,77.69
2023-04-02T14:02:08.196Z,77.27
2023-04-02T14:04:49.322Z,76.93
2023-04-02T14:07:35.193Z,76.65
2023-04-02T14:10:31.218Z,76.60
2023-04-02T14:14:00.589Z,76.51
2023-04-02T14:17:13.949Z,76.50
2023-04-02T14:20:22.761Z,75.84
2023-04-02T14:23:13.159Z,75.90
2023-04-02T14:26:02.288Z,76.45
2023-04-02T14:29:05.701Z,76.29
2023-04-02T14:32:51.774Z,76.01
2023-04-02T14:36:12.252Z,75.55
2023-04-02T14:39:21.963Z,75.98
2023-04-02T14:42:12.766Z,75.62
2023-04-02T14:45:01.568Z,75.92
2023-04-02T14:47:39.330Z,75.68
2023-04-02T14:50:22.704Z,75.76
2023-04-02T14:52:58.585Z,76.27
2023-04-02T14:55:47.367Z,76.16
2023-04-02T14:58:33.827Z,76.30
2023-04-02T15:01:21.079Z,75.76
2023-04-02T15:04:36.445Z,75.37
2023-04-02T15:07:41.792Z,75.77
2023-04-02T15:10:48.349Z,75.43
2023-04-02T15:13:23.623Z,75.26
2023-04-02T15:16:06.734Z,74.01
2023-04-02T15:19:05.108Z,72.73
2023-04-02T15:22:28.562Z,72.65
2023-04-02T15:25:21.098Z,70.95
2023-04-02T15:28:02.590Z,70.41
2023-04-02T15:30:38.315Z,69.19
2023-04-02T15:33:52.376Z,70.26
2023-04-02T15:36:28.571Z,70.05
2023-04-02T15:39:25.003Z,69.77
2023-04-02T15:42:09.272Z,69.17
2023-04-02T15:44:47.808Z,70.06
2023-04-02T15:47:34.480Z,69.99
2023-04-02T15:50:24.329Z,70.45
2023-04-02T15:53:25.005Z,70.25
2023-04-02T15:56:24.478Z,70.11
2023-04-02T15:59:16.645Z,70.14
2023-04-02T16:02:14.539Z,70.02
2023-04-02T16:04:54.300Z,70.35
2023-04-02T16:07:37.073Z,70.39
2023-04-02T16:10:30.279Z,70.49
2023-04-02T16:13:31.299Z,70.48
2023-04-02T16:16:12.957Z,70.75
2023-04-02T16:18:53.768Z,70.66
2023-04-02T16:21:27.432Z,69.90
2023-04-02T16:23:55.718Z,69.39
2023-04-02T16:26:27.271Z,69.55
2023-04-02T16:29:38.012Z,70.05
2023-04-02T16:32:33.022Z,69.57
2023-04-02T16:35:27.229Z,70.08
2023-04-02T16:38:44.257Z,70.15
2023-04-02T16:41:34.608Z,70.50
2023-04-02T16:44:26.717Z,70.58
2023-04-02T16:47:01.307Z,70.54
2023-04-02T16:49:43.706Z,70.53
2023-04-02T16:52:36.325Z,70.68
2023-04-02T16:55:41.437Z,70.90
2023-04-02T16:58:18.670Z,70.82
2023-04-02T17:01:05.202Z,70.64
2023-04-02T17:03:54.897Z,71.07
2023-04-02T17:06:43.568Z,71.22
2023-04-02T17:09:21.853Z,71.48
2023-04-02T17:11:56.412Z,71.65
2023-04-02T17:14:53.289Z,71.77
2023-04-02T17:17:23.288Z,71.85
2023-04-02T17:19:59.012Z,71.81
2023-04-02T17:22:31.437Z,71.71
2023-04-02T17:25:07.301Z,71.73
2023-04-02T17:27:43.828Z,71.78
2023-04-02T17:30:39.922Z,72.05
2023-04-02T17:33:13.622Z,71.99
2023-04-02T17:36:08.779Z,72.05
2023-04-02T17:39:02.279Z,72.33
2023-04-02T17:41:36.921Z,72.54
2023-04-02T17:44:31.113Z,72.67
2023-04-02T17:47:17.638Z,72.63
2023-04-02T17:50:20.063Z,72.84
2023-04-02T17:53:01.730Z,73.34
2023-04-02T17:55:41.117Z,73.27
2023-04-02T17:58:28.510Z,73.52
2023-04-02T18:01:23.625Z,73.44
2023-04-02T18:04:12.740Z,73.46
2023-04-02T18:07:00.695Z,73.79
2023-04-02T18:09:45.709Z,73.88
2023-04-02T18:12:58.289Z,73.85
2023-04-02T18:15:46.428Z,74.65
2023-04-02T18:18:42.811Z,74.75
2023-04-02T18:21:35.993Z,74.90
2023-04-02T18:24:29.577Z,74.86
2023-04-02T18:27:26.597Z,74.94
2023-04-02T18:30:09.458Z,74.64
2023-04-02T18:32:53.800Z,74.90
2023-04-02T18:36:05.552Z,74.92
2023-04-02T18:38:56.832Z,74.74
2023-04-02T18:42:08.365Z,75.08
2023-04-02T18:45:20.339Z,75.18
2023-04-02T18:48:59.949Z,75.27
2023-04-02T18:51:49.490Z,75.73
2023-04-02T18:54:49.501Z,75.77
2023-04-02T18:57:31.127Z,76.02
2023-04-02T19:00:05.981Z,75.91
2023-04-02T19:02:46.495Z,75.85
2023-04-02T19:05:28.994Z,75.19
2023-04-02T19:08:27.863Z,74.98
2023-04-02T19:11:04.836Z,73.90
2023-04-02T19:13:33.741Z,72.98
2023-04-02T19:16:17.529Z,71.47
2023-04-02T19:19:20.353Z,70.39
2023-04-02T19:21:51.790Z,69.11
2023-04-02T19:24:29.694Z,67.78
2023-04-02T19:27:26.047Z,64.53
2023-04-02T19:30:16.960Z,63.01
2023-04-02T19:33:30.714Z,63.12
2023-04-02T19:36:16.182Z,61.78
2023-04-02T19:39:19.937Z,60.04
2023-04-02T19:41:54.120Z,58.83
2023-04-02T19:44:25.210Z,59.10
2023-04-02T19:46:53.904Z,58.92
2023-04-02T19:49:40.010Z,58.24
2023-04-02T19:52:09.330Z,58.81
2023-04-02T19:54:40.921Z,58.92
2023-04-02T19:57:16.021Z,59.27
2023-04-02T19:59:44.905Z,59.10
2023-04-02T20:02:14.165Z,58.63
2023-04-02T20:04:42.936Z,58.38
2023-04-02T20:07:11.759Z,58.01
2023-04-02T20:09:43.109Z,57.64
2023-04-02T20:12:11.853Z,58.07
2023-04-02T20:14:40.490Z,58.05
2023-04-02T20:17:09.116Z,57.97
2023-04-02T20:19:37.693Z,58.20
2023-04-02T20:22:06.552Z,58.01
2023-04-02T20:24:35.603Z,57.60
2023-04-02T20:27:04.322Z,58.19
2023-04-02T20:29:35.926Z,58.49
2023-04-02T20:32:07.571Z,58.27
2023-04-02T20:34:37.049Z,58.45
2023-04-02T20:37:05.586Z,58.66
2023-04-02T20:39:34.068Z,58.47
2023-04-02T20:42:03.743Z,58.58
2023-04-02T20:44:32.118Z,58.80
2023-04-02T20:47:00.570Z,58.86
2023-04-02T20:49:29.137Z,59.27
2023-04-02T20:52:00.260Z,59.65
2023-04-02T20:54:29.003Z,59.93
2023-04-02T20:56:57.559Z,60.14
2023-04-02T20:59:26.545Z,60.22
2023-04-02T21:01:55.064Z,60.57
2023-04-02T21:04:26.809Z,60.84
2023-04-02T21:06:57.220Z,60.98
2023-04-02T21:09:25.630Z,61.33
2023-04-02T21:11:54.017Z,61.56
2023-04-02T21:14:23.131Z,61.94
2023-04-02T21:16:51.982Z,62.16
2023-04-02T21:19:20.542Z,62.49
2023-04-02T21:21:49.044Z,62.57
2023-04-02T21:24:17.421Z,62.36
2023-04-02T21:26:46.680Z,62.74
2023-04-02T21:29:15.138Z,62.51
2023-04-02T21:31:44.284Z,62.47
2023-04-02T21:34:17.308Z,62.31
2023-04-02T21:36:49.093Z,62.46
2023-04-02T21:39:21.408Z,62.54
2023-04-02T21:41:52.079Z,62.38
2023-04-02T21:44:22.573Z,62.43
2023-04-02T21:46:53.900Z,62.62
2023-04-02T21:49:23.228Z,62.52
2023-04-02T21:51:52.599Z,62.83
2023-04-02T21:54:21.473Z,62.77
2023-04-02T21:56:50.324Z,63.01
2023-04-02T21:59:19.215Z,62.94
2023-04-02T22:01:56.430Z,63.04
2023-04-02T22:04:25.980Z,62.94
2023-04-02T22:06:54.744Z,63.05
2023-04-02T22:09:26.921Z,62.86
2023-04-02T22:12:02.203Z,62.93
2023-04-02T22:14:30.992Z,63.10
2023-04-02T22:17:08.926Z,63.48
2023-04-02T22:19:38.378Z,63.46
2023-04-02T22:22:07.101Z,63.47
2023-04-02T22:24:35.613Z,63.72
2023-04-02T22:27:04.311Z,63.91
2023-04-02T22:29:32.632Z,64.14
2023-04-02T22:32:04.195Z,64.41
2023-04-02T22:34:32.893Z,64.62
2023-04-02T22:37:02.708Z,64.74
2023-04-02T22:39:31.228Z,64.75
2023-04-02T22:41:59.480Z,65.20
2023-04-02T22:44:28.518Z,65.08
2023-04-02T22:47:06.697Z,65.20
2023-04-02T22:49:35.037Z,65.21
2023-04-02T22:52:06.134Z,65.88
2023-04-02T22:54:34.548Z,65.72
2023-04-02T22:57:02.687Z,65.78
2023-04-02T22:59:30.994Z,65.94
2023-04-02T23:01:59.336Z,66.11
2023-04-02T23:04:28.016Z,66.46
2023-04-02T23:06:56.788Z,66.42
2023-04-02T23:09:25.114Z,66.77
2023-04-02T23:11:53.494Z,66.80
2023-04-02T23:14:21.918Z,67.44
2023-04-02T23:16:50.537Z,67.02
2023-04-02T23:19:19.127Z,67.39
2023-04-02T23:21:47.793Z,67.56
2023-04-02T23:24:18.903Z,67.80
2023-04-02T23:26:48.861Z,67.95
2023-04-02T23:29:17.291Z,68.37
2023-04-02T23:31:49.054Z,68.05
2023-04-02T23:34:17.287Z,68.83
2023-04-02T23:36:45.562Z,68.83
2023-04-02T23:39:14.427Z,68.95
2023-04-02T23:41:43.539Z,69.21
2023-04-02T23:44:12.219Z,69.50
2023-04-02T23:46:40.391Z,69.63
2023-04-02T23:49:12.864Z,69.84
2023-04-02T23:51:41.658Z,69.94
2023-04-02T23:54:12.023Z,69.83
2023-04-02T23:56:41.336Z,70.10
2023-04-02T23:59:10.107Z,70.15
